Time,TemperatureF,DewpointF,PressureIn,WindDirection,WindDirectionDegrees,WindSpeedMPH,WindSpeedGustMPH,Humidity,HourlyPrecipIn,Conditions,Clouds,dailyrainin,SoftwareType,DateUTC
2013-02-11 00:00:00,6.0,-99.9,-100.00,North,-999,-999.0,-999.0,-999,-99.99,,,-99.99,,2013-02-11 07:00:00,
2013-02-11 00:52:00,6.0,-99.9,-100.00,North,-999,-999.0,-999.0,-999,-99.99,,,-99.99,,2013-02-11 07:52:00,
2013-02-11 01:00:00,6.0,4.0,-100.00,SSE,154,0.0,1.0,89,-99.99,,,-99.99,,2013-02-11 08:00:00,
2013-02-11 01:52:00,6.0,4.0,-100.00,SSE,154,0.0,1.0,89,-99.99,,,-99.99,,2013-02-11 08:52:00,
2013-02-11 13:00:00,32.0,12.0,-100.00,SW,225,1.0,5.0,43,-99.99,,,-99.99,,2013-02-11 20:00:00,
2013-02-11 13:52:00,32.0,12.0,-100.00,SW,225,1.0,5.0,43,-99.99,,,-99.99,,2013-02-11 20:52:00,
2013-02-11 14:00:00,31.0,8.0,-100.00,WSW,252,1.0,4.0,38,-99.99,,,0.00,,2013-02-11 21:00:00,
2013-02-11 14:52:00,31.0,8.0,-100.00,WSW,252,1.0,4.0,38,-99.99,,,0.00,,2013-02-11 21:52:00,
2013-02-11 15:00:00,28.0,5.0,-100.00,West,261,1.0,5.0,36,-99.99,,,0.00,,2013-02-11 22:00:00,
2013-02-11 15:52:00,28.0,5.0,-100.00,West,261,1.0,5.0,36,-99.99,,,0.00,,2013-02-11 22:52:00,
2013-02-11 16:00:00,26.0,10.0,-100.00,WSW,254,1.0,6.0,50,-99.99,,,0.00,,2013-02-11 23:00:00,
2013-02-11 16:52:00,26.0,10.0,-100.00,WSW,254,1.0,6.0,50,-99.99,,,0.00,,2013-02-11 23:52:00,
2013-02-11 17:00:00,25.0,12.0,-100.00,West,268,0.0,3.0,56,-99.99,,,0.00,,2013-02-12 00:00:00,
2013-02-11 17:52:00,25.0,12.0,-100.00,West,268,0.0,3.0,56,-99.99,,,0.00,,2013-02-12 00:52:00,
2013-02-11 18:00:00,21.0,14.0,-100.00,West,267,0.0,3.0,73,-99.99,,,0.00,,2013-02-12 01:00:00,
2013-02-11 18:52:00,21.0,14.0,-100.00,West,267,0.0,3.0,73,-99.99,,,0.00,,2013-02-12 01:52:00,
2013-02-11 19:00:00,21.0,19.0,-100.00,SE,143,0.0,0.0,92,-99.99,,,0.01,,2013-02-12 02:00:00,
2013-02-11 19:53:00,21.0,19.0,-100.00,SE,143,0.0,0.0,92,-99.99,,,0.01,,2013-02-12 02:53:00,
2013-02-11 20:00:00,21.0,19.0,-100.00,SSW,208,0.0,0.0,93,-99.99,,,0.01,,2013-02-12 03:00:00,
2013-02-11 20:52:00,21.0,19.0,-100.00,SSW,208,0.0,0.0,93,-99.99,,,0.01,,2013-02-12 03:52:00,
2013-02-11 21:00:00,20.0,19.0,-100.00,SW,217,0.0,1.0,94,-99.99,,,0.01,,2013-02-12 04:00:00,
2013-02-11 21:52:00,20.0,19.0,-100.00,SW,217,0.0,1.0,94,-99.99,,,0.01,,2013-02-12 04:52:00,